Time;durP1;ratioP1;P1;durP2;ratioP2;P2;SDS_P1;SDS_P2;PMS_P1;PMS_P2;Temp;Humidity;BMP_temperature;BMP_pressure;BME280_temperature;BME280_humidity;BME280_pressure;Samples;Min_cycle;Max_cycle;Signal;HPM_P1;HPM_P2
2021/06/22 00:02:25;;;;;;;24.73;23.00;;;;;;;;;;5119021;28;20442;-87
2021/06/22 00:04:53;;;;;;;25.30;23.40;;;;;;;;;;5134814;27;20438;-87
2021/06/22 00:07:20;;;;;;;24.33;22.33;;;;;;;;;;5118854;28;20407;-87
2021/06/22 00:09:48;;;;;;;23.23;21.73;;;;;;;;;;5118423;28;20461;-87
2021/06/22 00:12:15;;;;;;;23.57;21.93;;;;;;;;;;5134732;27;20426;-87
2021/06/22 00:14:43;;;;;;;23.47;21.87;;;;;;;;;;5118361;28;20418;-87
2021/06/22 00:17:10;;;;;;;24.50;22.40;;;;;;;;;;5118751;28;20424;-87
2021/06/22 00:19:39;;;;;;;24.07;22.47;;;;;;;;;;5118638;28;20460;-87
2021/06/22 00:22:06;;;;;;;26.23;24.33;;;;;;;;;;5134634;27;20806;-87
2021/06/22 00:24:34;;;;;;;24.33;22.60;;;;;;;;;;5118350;28;20448;-87
2021/06/22 00:27:01;;;;;;;26.77;24.87;;;;;;;;;;5118187;28;20423;-87
2021/06/22 00:29:29;;;;;;;25.50;23.70;;;;;;;;;;5118143;28;20444;-87
2021/06/22 00:31:56;;;;;;;25.07;23.03;;;;;;;;;;5118284;28;20411;-86
2021/06/22 00:34:24;;;;;;;25.00;23.17;;;;;;;;;;5118522;28;20423;-87
2021/06/22 00:36:52;;;;;;;26.67;24.77;;;;;;;;;;5118837;28;20797;-87
2021/06/22 00:39:20;;;;;;;26.90;24.30;;;;;;;;;;5118457;28;20432;-87
2021/06/22 00:41:47;;;;;;;26.47;24.27;;;;;;;;;;5118278;28;20929;-87
2021/06/22 00:44:14;;;;;;;26.57;23.80;;;;;;;;;;5117842;28;20435;-87
2021/06/22 00:46:42;;;;;;;25.23;23.43;;;;;;;;;;5118105;28;20407;-86
2021/06/22 00:49:09;;;;;;;26.63;24.47;;;;;;;;;;5118098;28;20440;-87
2021/06/22 00:51:37;;;;;;;27.40;25.10;;;;;;;;;;5118533;28;20421;-87
2021/06/22 00:54:06;;;;;;;26.20;24.10;;;;;;;;;;5117977;28;20418;-87
2021/06/22 00:56:34;;;;;;;25.03;23.13;;;;;;;;;;5117441;28;20475;-87
2021/06/22 00:59:01;;;;;;;25.83;24.13;;;;;;;;;;5118113;28;20398;-87
2021/06/22 01:01:28;;;;;;;26.17;23.77;;;;;;;;;;5117902;28;20402;-87
2021/06/22 01:03:56;;;;;;;25.70;23.70;;;;;;;;;;5117548;28;20436;-87
2021/06/22 01:06:24;;;;;;;25.70;23.60;;;;;;;;;;5117447;28;20480;-87
2021/06/22 01:08:52;;;;;;;26.77;24.60;;;;;;;;;;5117365;28;20449;-87
2021/06/22 01:11:21;;;;;;;25.10;23.27;;;;;;;;;;5117774;28;20441;-86
2021/06/22 01:13:48;;;;;;;26.87;24.47;;;;;;;;;;5117591;28;20430;-87
2021/06/22 01:16:25;;;;;;;26.50;24.30;;;;;;;;;;5117292;28;20452;-87
2021/06/22 01:18:58;;;;;;;25.80;23.47;;;;;;;;;;5117208;28;20414;-87
2021/06/22 01:21:27;;;;;;;25.13;22.90;;;;;;;;;;5117755;28;20411;-87
2021/06/22 01:23:55;;;;;;;26.33;24.33;;;;;;;;;;5117419;28;20421;-87
2021/06/22 01:26:22;;;;;;;25.23;23.43;;;;;;;;;;5117374;28;20441;-87
2021/06/22 01:28:50;;;;;;;25.57;23.43;;;;;;;;;;5117519;28;20441;-87
2021/06/22 01:31:17;;;;;;;28.50;25.90;;;;;;;;;;5117380;28;20420;-87
2021/06/22 01:33:47;;;;;;;25.80;23.90;;;;;;;;;;5117463;28;20437;-87
2021/06/22 01:36:15;;;;;;;26.70;24.67;;;;;;;;;;5117078;28;20458;-87
2021/06/22 01:38:44;;;;;;;26.37;24.30;;;;;;;;;;5116921;28;20430;-87
2021/06/22 01:41:11;;;;;;;26.70;24.80;;;;;;;;;;5117146;28;20440;-87
2021/06/22 01:43:39;;;;;;;24.80;23.10;;;;;;;;;;5116771;28;20414;-87
2021/06/22 01:46:06;;;;;;;25.00;23.30;;;;;;;;;;5116815;28;20433;-87
2021/06/22 01:48:33;;;;;;;25.13;23.33;;;;;;;;;;5116781;28;20426;-87
2021/06/22 01:51:01;;;;;;;26.60;24.30;;;;;;;;;;5116995;28;20765;-87
2021/06/22 01:53:28;;;;;;;26.87;24.80;;;;;;;;;;5116884;28;20417;-87
2021/06/22 01:55:57;;;;;;;25.67;23.77;;;;;;;;;;5116610;28;20481;-87
2021/06/22 01:58:25;;;;;;;25.37;23.13;;;;;;;;;;5132748;27;20480;-86
2021/06/22 02:00:53;;;;;;;25.00;23.27;;;;;;;;;;5116864;28;20442;-87
2021/06/22 02:03:21;;;;;;;25.67;23.77;;;;;;;;;;5116710;28;20418;-88
2021/06/22 02:05:50;;;;;;;25.73;23.57;;;;;;;;;;5116695;28;20450;-87
2021/06/22 02:08:18;;;;;;;24.90;22.83;;;;;;;;;;5116458;28;20454;-87
2021/06/22 02:10:45;;;;;;;25.20;23.00;;;;;;;;;;5116960;28;20429;-87
2021/06/22 02:13:14;;;;;;;24.37;21.97;;;;;;;;;;5116041;28;20414;-87
2021/06/22 02:15:42;;;;;;;24.53;22.83;;;;;;;;;;5116497;28;20450;-87
2021/06/22 02:18:10;;;;;;;25.40;23.40;;;;;;;;;;5116326;28;20918;-87
2021/06/22 02:20:39;;;;;;;25.57;23.40;;;;;;;;;;5116195;28;20437;-86
2021/06/22 02:23:06;;;;;;;23.93;22.23;;;;;;;;;;5116575;28;20406;-87
2021/06/22 02:25:34;;;;;;;25.80;23.30;;;;;;;;;;5115769;28;20798;-87
2021/06/22 02:28:02;;;;;;;24.17;22.47;;;;;;;;;;5116267;28;20405;-87
2021/06/22 02:30:31;;;;;;;25.30;23.20;;;;;;;;;;5116029;27;20422;-87
2021/06/22 02:32:58;;;;;;;25.53;23.30;;;;;;;;;;5116124;28;20443;-87
2021/06/22 02:35:26;;;;;;;25.63;23.83;;;;;;;;;;5115933;28;20407;-87
2021/06/22 02:37:53;;;;;;;25.57;23.40;;;;;;;;;;5132128;27;20765;-87
2021/06/22 02:40:21;;;;;;;24.17;22.23;;;;;;;;;;5116079;28;20433;-87
2021/06/22 02:42:49;;;;;;;24.30;22.50;;;;;;;;;;5115915;28;20440;-87
2021/06/22 02:45:17;;;;;;;25.77;23.33;;;;;;;;;;5131735;27;20934;-87
2021/06/22 02:47:47;;;;;;;24.73;23.03;;;;;;;;;;5115888;28;20444;-87
2021/06/22 02:50:15;;;;;;;23.63;21.80;;;;;;;;;;5115804;28;20395;-87
2021/06/22 02:52:42;;;;;;;25.83;24.03;;;;;;;;;;5115849;28;20403;-87
2021/06/22 02:55:18;;;;;;;24.43;22.60;;;;;;;;;;5115766;28;20444;-87
2021/06/22 02:57:46;;;;;;;24.53;22.73;;;;;;;;;;5115849;28;20795;-87
2021/06/22 03:00:14;;;;;;;24.70;22.83;;;;;;;;;;5115301;28;20432;-87
2021/06/22 03:02:41;;;;;;;24.90;23.20;;;;;;;;;;5115324;28;20416;-87
2021/06/22 03:05:11;;;;;;;24.30;22.03;;;;;;;;;;5115639;28;20427;-86
2021/06/22 03:07:39;;;;;;;27.17;24.10;;;;;;;;;;5115258;28;20407;-87
2021/06/22 03:10:07;;;;;;;23.63;22.00;;;;;;;;;;5114979;28;20454;-87
2021/06/22 03:12:34;;;;;;;24.60;22.80;;;;;;;;;;5115097;28;20443;-87
2021/06/22 03:15:02;;;;;;;23.67;21.80;;;;;;;;;;5115565;27;20436;-86
2021/06/22 03:17:29;;;;;;;23.43;21.77;;;;;;;;;;5114965;28;20459;-87
2021/06/22 03:19:57;;;;;;;22.60;21.00;;;;;;;;;;5115119;28;20407;-87
2021/06/22 03:22:26;;;;;;;23.50;21.70;;;;;;;;;;5115242;28;20398;-87
2021/06/22 03:24:53;;;;;;;23.40;21.43;;;;;;;;;;5114973;28;20437;-87
2021/06/22 03:27:20;;;;;;;24.30;22.60;;;;;;;;;;5114732;28;20435;-87
2021/06/22 03:29:48;;;;;;;22.37;21.07;;;;;;;;;;5114981;28;20441;-87
2021/06/22 03:32:15;;;;;;;22.83;21.03;;;;;;;;;;5114670;28;20414;-87
2021/06/22 03:34:43;;;;;;;23.40;21.60;;;;;;;;;;5114851;28;20922;-87
2021/06/22 03:37:10;;;;;;;24.07;22.17;;;;;;;;;;5114677;28;20540;-87
2021/06/22 03:39:39;;;;;;;22.57;20.97;;;;;;;;;;5114760;28;20418;-87
2021/06/22 03:42:09;;;;;;;22.90;21.30;;;;;;;;;;5115498;28;20432;-87
2021/06/22 03:44:37;;;;;;;24.37;22.10;;;;;;;;;;5114809;28;20406;-87
2021/06/22 03:47:05;;;;;;;23.13;21.43;;;;;;;;;;5115095;28;20410;-87
2021/06/22 03:49:32;;;;;;;22.80;21.17;;;;;;;;;;5114809;28;20770;-87
2021/06/22 03:51:59;;;;;;;24.43;22.33;;;;;;;;;;5115059;28;20470;-87
2021/06/22 03:54:27;;;;;;;22.90;21.27;;;;;;;;;;5114570;28;20934;-88
2021/06/22 03:56:56;;;;;;;24.40;21.67;;;;;;;;;;5114516;28;20482;-87
2021/06/22 03:59:23;;;;;;;23.47;21.60;;;;;;;;;;5113969;28;20799;-81
2021/06/22 04:01:51;;;;;;;24.10;22.27;;;;;;;;;;5114186;28;20415;-81
2021/06/22 04:04:18;;;;;;;23.53;22.00;;;;;;;;;;5114136;28;20440;-87
2021/06/22 04:06:45;;;;;;;24.37;21.97;;;;;;;;;;5114791;28;20463;-87
2021/06/22 04:09:13;;;;;;;26.07;23.80;;;;;;;;;;5114876;28;20475;-88
2021/06/22 04:11:40;;;;;;;24.00;22.03;;;;;;;;;;5114231;28;20426;-81
2021/06/22 04:14:09;;;;;;;25.17;23.17;;;;;;;;;;5114160;28;20459;-81
2021/06/22 04:16:36;;;;;;;24.70;22.40;;;;;;;;;;5113970;28;20458;-81
2021/06/22 04:19:04;;;;;;;25.30;23.33;;;;;;;;;;5129973;28;20923;-81
2021/06/22 04:21:31;;;;;;;25.20;23.40;;;;;;;;;;5113900;28;20409;-81
2021/06/22 04:23:58;;;;;;;26.57;24.67;;;;;;;;;;5114039;28;20424;-81
2021/06/22 04:26:26;;;;;;;27.47;25.27;;;;;;;;;;5113811;28;20794;-81
2021/06/22 04:28:53;;;;;;;25.97;23.83;;;;;;;;;;5113783;28;20430;-81
2021/06/22 04:31:22;;;;;;;25.30;23.33;;;;;;;;;;5113759;28;20452;-81
2021/06/22 04:33:49;;;;;;;26.67;24.50;;;;;;;;;;5113697;28;20433;-80
2021/06/22 04:36:17;;;;;;;26.67;24.40;;;;;;;;;;5113382;28;20454;-80
2021/06/22 04:38:44;;;;;;;28.20;25.93;;;;;;;;;;5117101;28;20407;-80
2021/06/22 04:41:12;;;;;;;28.43;26.03;;;;;;;;;;5117183;28;20474;-80
2021/06/22 04:43:40;;;;;;;27.87;25.77;;;;;;;;;;5133432;27;20435;-80
2021/06/22 04:46:07;;;;;;;28.23;25.80;;;;;;;;;;5116276;28;20402;-80
2021/06/22 04:48:38;;;;;;;29.97;27.03;;;;;;;;;;5117241;28;20404;-80
2021/06/22 04:51:06;;;;;;;30.27;27.67;;;;;;;;;;5117349;28;20430;-79
2021/06/22 04:53:33;;;;;;;29.27;27.17;;;;;;;;;;5117412;27;20414;-80
2021/06/22 04:56:00;;;;;;;30.13;27.60;;;;;;;;;;5117036;28;20414;-80
2021/06/22 04:58:28;;;;;;;29.90;27.60;;;;;;;;;;5117093;28;20433;-80
2021/06/22 05:00:55;;;;;;;29.10;27.10;;;;;;;;;;5116876;28;20442;-80
2021/06/22 05:03:22;;;;;;;30.80;27.90;;;;;;;;;;5116964;28;20459;-80
2021/06/22 05:05:51;;;;;;;30.07;27.60;;;;;;;;;;5116763;28;20446;-80
2021/06/22 05:08:18;;;;;;;31.20;28.30;;;;;;;;;;5116750;28;20474;-80
2021/06/22 05:10:46;;;;;;;28.87;26.53;;;;;;;;;;5116670;28;20419;-80
2021/06/22 05:13:13;;;;;;;29.80;27.53;;;;;;;;;;5116614;28;20403;-80
2021/06/22 05:15:40;;;;;;;31.13;28.67;;;;;;;;;;5116637;28;20931;-80
2021/06/22 05:18:08;;;;;;;29.33;26.83;;;;;;;;;;5116877;28;20462;-80
2021/06/22 05:20:36;;;;;;;29.47;26.87;;;;;;;;;;5116461;28;20439;-80
2021/06/22 05:23:05;;;;;;;28.53;26.23;;;;;;;;;;5116898;28;20402;-80
2021/06/22 05:25:32;;;;;;;29.60;26.77;;;;;;;;;;5116364;28;20913;-80
2021/06/22 05:28:00;;;;;;;28.93;26.93;;;;;;;;;;5116422;27;20431;-80
2021/06/22 05:30:27;;;;;;;28.80;26.20;;;;;;;;;;5116707;28;20497;-80
2021/06/22 05:32:54;;;;;;;30.30;27.80;;;;;;;;;;5116126;28;20843;-80
2021/06/22 05:35:22;;;;;;;29.00;26.70;;;;;;;;;;5132552;27;20791;-80
2021/06/22 05:37:49;;;;;;;29.43;26.93;;;;;;;;;;5116341;28;20466;-80
2021/06/22 05:40:19;;;;;;;28.23;25.80;;;;;;;;;;5116155;28;20440;-80
2021/06/22 05:42:46;;;;;;;30.00;27.37;;;;;;;;;;5115849;28;20795;-80
2021/06/22 05:45:14;;;;;;;29.23;26.90;;;;;;;;;;5116378;28;20406;-80
2021/06/22 05:47:41;;;;;;;30.43;27.70;;;;;;;;;;5116003;28;20770;-80
2021/06/22 05:50:09;;;;;;;31.33;28.53;;;;;;;;;;5115457;28;20407;-81
2021/06/22 05:52:37;;;;;;;30.77;28.07;;;;;;;;;;5115795;28;20455;-81
2021/06/22 05:55:16;;;;;;;31.53;29.23;;;;;;;;;;5116096;28;20840;-81
2021/06/22 05:57:45;;;;;;;31.97;29.23;;;;;;;;;;5116150;27;20549;-81
2021/06/22 06:00:13;;;;;;;30.47;27.90;;;;;;;;;;5115705;28;20432;-80
2021/06/22 06:02:40;;;;;;;30.03;27.63;;;;;;;;;;5115612;28;20444;-78
2021/06/22 06:05:09;;;;;;;31.50;28.73;;;;;;;;;;5115666;28;20447;-81
2021/06/22 06:07:37;;;;;;;29.50;27.23;;;;;;;;;;5115523;28;20489;-80
2021/06/22 06:10:04;;;;;;;30.27;27.73;;;;;;;;;;5115488;28;20457;-80
2021/06/22 06:12:31;;;;;;;30.67;28.13;;;;;;;;;;5115884;28;20432;-80
2021/06/22 06:15:00;;;;;;;29.13;26.33;;;;;;;;;;5115605;28;20903;-80
2021/06/22 06:17:28;;;;;;;29.40;26.87;;;;;;;;;;5115724;27;20483;-80
2021/06/22 06:19:55;;;;;;;29.17;26.93;;;;;;;;;;5115667;28;20406;-80
2021/06/22 06:22:23;;;;;;;29.33;27.13;;;;;;;;;;5115613;28;20472;-80
2021/06/22 06:24:52;;;;;;;31.53;29.13;;;;;;;;;;5115257;28;20422;-80
2021/06/22 06:27:23;;;;;;;30.40;27.87;;;;;;;;;;5115170;28;20410;-80
2021/06/22 06:29:55;;;;;;;29.17;27.03;;;;;;;;;;5115129;28;20411;-79
2021/06/22 06:32:23;;;;;;;31.87;29.00;;;;;;;;;;5115059;28;20440;-80
2021/06/22 06:34:51;;;;;;;29.80;27.37;;;;;;;;;;5115364;28;20430;-80
2021/06/22 06:37:18;;;;;;;30.50;28.10;;;;;;;;;;5115304;28;20538;-80
2021/06/22 06:39:45;;;;;;;31.10;28.27;;;;;;;;;;5115378;28;20407;-80
2021/06/22 06:42:13;;;;;;;30.30;27.90;;;;;;;;;;5115520;28;20455;-80
2021/06/22 06:44:40;;;;;;;30.43;28.33;;;;;;;;;;5114934;28;20449;-81
2021/06/22 06:47:08;;;;;;;32.33;29.70;;;;;;;;;;5114863;28;20399;-80
2021/06/22 06:49:36;;;;;;;30.97;28.43;;;;;;;;;;5114811;28;20441;-80
2021/06/22 06:52:04;;;;;;;29.63;27.53;;;;;;;;;;5114761;27;20411;-80
2021/06/22 06:54:31;;;;;;;29.20;27.03;;;;;;;;;;5115214;28;20412;-80
2021/06/22 06:56:59;;;;;;;30.77;27.77;;;;;;;;;;5114477;28;20438;-80
2021/06/22 06:59:26;;;;;;;28.97;26.90;;;;;;;;;;5114651;28;20425;-81
2021/06/22 07:01:53;;;;;;;30.50;27.67;;;;;;;;;;5114764;28;20411;-80
2021/06/22 07:04:21;;;;;;;28.80;26.50;;;;;;;;;;5114380;28;20448;-80
2021/06/22 07:06:50;;;;;;;28.00;25.70;;;;;;;;;;5114490;28;20416;-80
2021/06/22 07:09:17;;;;;;;28.33;25.93;;;;;;;;;;5114394;28;20462;-81
2021/06/22 07:11:44;;;;;;;32.37;29.07;;;;;;;;;;5114485;28;20451;-93
2021/06/22 07:14:14;;;;;;;30.80;28.20;;;;;;;;;;5116024;28;20403;-89
2021/06/22 07:16:42;;;;;;;31.23;28.80;;;;;;;;;;5114985;28;20439;-83
2021/06/22 07:19:09;;;;;;;28.90;26.70;;;;;;;;;;5115178;28;20443;-85
2021/06/22 07:21:37;;;;;;;29.70;27.27;;;;;;;;;;5115470;28;20438;-88
2021/06/22 07:24:07;;;;;;;29.23;26.93;;;;;;;;;;5115217;28;20874;-88
2021/06/22 07:26:34;;;;;;;28.30;25.90;;;;;;;;;;5115067;28;20404;-87
2021/06/22 07:29:02;;;;;;;27.90;25.80;;;;;;;;;;5115578;28;20465;-88
2021/06/22 07:31:29;;;;;;;27.73;25.83;;;;;;;;;;5115135;28;20416;-88
2021/06/22 07:33:56;;;;;;;29.77;26.87;;;;;;;;;;5115750;28;20448;-88
2021/06/22 07:36:24;;;;;;;27.00;25.20;;;;;;;;;;5130993;27;20428;-87
2021/06/22 07:38:51;;;;;;;28.97;26.50;;;;;;;;;;5114713;28;20489;-87
2021/06/22 07:41:21;;;;;;;29.57;27.47;;;;;;;;;;5131023;27;20433;-88
2021/06/22 07:43:48;;;;;;;27.80;25.60;;;;;;;;;;5115393;28;20419;-84
2021/06/22 07:46:16;;;;;;;28.27;26.20;;;;;;;;;;5131700;27;20445;-88
2021/06/22 07:48:43;;;;;;;27.73;25.43;;;;;;;;;;5115037;28;20522;-89
2021/06/22 07:51:11;;;;;;;27.80;25.37;;;;;;;;;;5114606;28;20413;-89
2021/06/22 07:53:38;;;;;;;28.90;26.30;;;;;;;;;;5114955;28;20429;-88
2021/06/22 07:56:05;;;;;;;28.77;26.70;;;;;;;;;;5114474;28;20417;-87
2021/06/22 07:58:34;;;;;;;28.23;26.17;;;;;;;;;;5114396;28;20462;-89
2021/06/22 08:01:02;;;;;;;25.90;24.20;;;;;;;;;;5114710;28;20453;-88
2021/06/22 08:03:29;;;;;;;25.63;23.87;;;;;;;;;;5114555;28;20546;-88
2021/06/22 08:05:56;;;;;;;26.97;25.07;;;;;;;;;;5114771;28;20785;-88
2021/06/22 08:08:24;;;;;;;27.17;25.00;;;;;;;;;;5114283;28;20931;-87
2021/06/22 08:10:52;;;;;;;27.23;24.97;;;;;;;;;;5114817;28;20415;-88
2021/06/22 08:13:20;;;;;;;26.40;24.47;;;;;;;;;;5117751;28;20408;-88
2021/06/22 08:15:49;;;;;;;26.77;24.87;;;;;;;;;;5118545;28;20449;-88
2021/06/22 08:18:16;;;;;;;27.33;25.37;;;;;;;;;;5118307;28;20999;-88
2021/06/22 08:20:44;;;;;;;25.83;24.07;;;;;;;;;;5134697;27;20815;-88
2021/06/22 08:23:12;;;;;;;28.10;25.83;;;;;;;;;;5118513;28;20415;-87
2021/06/22 08:25:39;;;;;;;27.43;25.27;;;;;;;;;;5118879;28;20434;-88
2021/06/22 08:28:07;;;;;;;25.27;23.60;;;;;;;;;;5119068;28;20434;-88
2021/06/22 08:30:35;;;;;;;25.93;24.23;;;;;;;;;;5134693;27;20441;-85
2021/06/22 08:33:06;;;;;;;27.03;24.83;;;;;;;;;;5134251;27;20419;-86
2021/06/22 08:35:35;;;;;;;26.07;24.17;;;;;;;;;;5118289;28;20399;-89
2021/06/22 08:38:03;;;;;;;25.90;23.90;;;;;;;;;;5118136;28;20467;-86
2021/06/22 08:40:30;;;;;;;27.10;25.20;;;;;;;;;;5118198;28;20417;-85
2021/06/22 08:42:59;;;;;;;27.37;25.23;;;;;;;;;;5117898;28;20798;-85
2021/06/22 08:45:27;;;;;;;27.77;25.90;;;;;;;;;;5134184;27;20465;-84
2021/06/22 08:47:55;;;;;;;30.40;28.10;;;;;;;;;;5117685;28;20424;-84
2021/06/22 08:50:23;;;;;;;28.87;26.90;;;;;;;;;;5116796;28;20443;-83
2021/06/22 08:52:51;;;;;;;28.70;26.63;;;;;;;;;;5117628;28;20440;-85
2021/06/22 08:55:30;;;;;;;28.80;26.80;;;;;;;;;;5117623;28;20408;-85
2021/06/22 08:57:59;;;;;;;28.87;26.00;;;;;;;;;;5117349;28;20554;-84
2021/06/22 09:00:27;;;;;;;28.60;26.17;;;;;;;;;;5117557;28;20468;-84
2021/06/22 09:02:58;;;;;;;26.73;24.63;;;;;;;;;;5118010;28;20451;-85
2021/06/22 09:05:27;;;;;;;26.87;25.00;;;;;;;;;;5118408;28;20500;-84
2021/06/22 09:07:55;;;;;;;29.03;26.77;;;;;;;;;;5118042;28;20407;-85
2021/06/22 09:10:24;;;;;;;27.47;25.43;;;;;;;;;;5133663;27;20517;-80
2021/06/22 09:12:52;;;;;;;26.70;24.43;;;;;;;;;;5118188;28;20426;-92
2021/06/22 09:15:21;;;;;;;26.43;24.20;;;;;;;;;;5119088;28;20407;-89
2021/06/22 09:17:48;;;;;;;24.63;23.00;;;;;;;;;;5117612;28;20529;-91
2021/06/22 09:20:16;;;;;;;25.20;23.27;;;;;;;;;;5133778;27;20904;-89
2021/06/22 09:22:45;;;;;;;25.47;23.63;;;;;;;;;;5117497;28;20448;-89
2021/06/22 09:25:13;;;;;;;26.63;24.67;;;;;;;;;;5116154;28;20439;-88
2021/06/22 09:27:47;;;;;;;24.47;22.73;;;;;;;;;;5117409;28;20442;-93
2021/06/22 09:30:16;;;;;;;24.07;22.50;;;;;;;;;;5117081;27;20429;-82
2021/06/22 09:32:46;;;;;;;25.70;23.43;;;;;;;;;;5116842;28;20407;-82
2021/06/22 09:35:20;;;;;;;25.77;23.97;;;;;;;;;;5116580;28;20437;-83
2021/06/22 09:37:53;;;;;;;25.20;23.30;;;;;;;;;;5116917;28;20568;-83
2021/06/22 09:40:27;;;;;;;24.97;22.70;;;;;;;;;;5116789;28;20764;-84
2021/06/22 09:42:55;;;;;;;24.40;22.60;;;;;;;;;;5116399;28;20403;-83
2021/06/22 09:45:23;;;;;;;25.00;23.23;;;;;;;;;;5116293;28;20440;-84
2021/06/22 09:47:51;;;;;;;25.93;24.07;;;;;;;;;;5116519;28;20440;-84
2021/06/22 09:50:33;;;;;;;25.87;23.47;;;;;;;;;;5116806;28;20507;-96
2021/06/22 09:53:15;;;;;;;24.57;22.77;;;;;;;;;;5114138;28;20460;-86
2021/06/22 09:55:44;;;;;;;25.80;23.43;;;;;;;;;;5114676;28;20411;-85
2021/06/22 09:58:13;;;;;;;25.93;23.90;;;;;;;;;;5116364;28;20957;-86
2021/06/22 10:00:41;;;;;;;24.13;22.43;;;;;;;;;;5116543;28;20916;-86
2021/06/22 10:03:10;;;;;;;24.43;22.83;;;;;;;;;;5116578;28;20469;-83
2021/06/22 10:05:50;;;;;;;24.73;22.80;;;;;;;;;;5116586;28;20873;-85
2021/06/22 10:08:18;;;;;;;24.90;23.37;;;;;;;;;;5116086;28;20947;-86
2021/06/22 10:10:47;;;;;;;26.87;25.03;;;;;;;;;;5117317;28;20412;-86
2021/06/22 10:13:29;;;;;;;25.30;23.57;;;;;;;;;;5115975;28;20471;-86
2021/06/22 10:16:11;;;;;;;25.13;23.40;;;;;;;;;;5116188;28;20453;-85
2021/06/22 10:18:38;;;;;;;26.40;24.30;;;;;;;;;;5115806;28;20466;-87
2021/06/22 10:21:06;;;;;;;24.60;22.37;;;;;;;;;;5116681;28;20438;-86
2021/06/22 10:23:33;;;;;;;24.67;22.97;;;;;;;;;;5115910;28;20440;-86
2021/06/22 10:26:02;;;;;;;23.60;22.10;;;;;;;;;;5116297;27;20771;-87
2021/06/22 10:28:30;;;;;;;24.67;22.97;;;;;;;;;;5115805;28;20420;-85
2021/06/22 10:30:58;;;;;;;23.53;21.90;;;;;;;;;;5115839;28;21004;-85
2021/06/22 10:33:25;;;;;;;23.67;22.17;;;;;;;;;;5115808;28;20410;-86
2021/06/22 10:35:52;;;;;;;24.30;22.33;;;;;;;;;;5115482;28;20416;-86
2021/06/22 10:38:22;;;;;;;23.67;22.00;;;;;;;;;;5115996;28;20445;-86
2021/06/22 10:40:53;;;;;;;24.23;22.50;;;;;;;;;;5115613;28;20449;-86
2021/06/22 10:43:36;;;;;;;25.37;23.73;;;;;;;;;;5116040;28;20419;-88
2021/06/22 10:46:05;;;;;;;24.60;22.70;;;;;;;;;;5116290;28;20424;-86
2021/06/22 10:48:42;;;;;;;24.20;22.40;;;;;;;;;;5115910;28;20450;-87
2021/06/22 10:51:29;;;;;;;25.57;23.50;;;;;;;;;;5115308;28;20509;-87
2021/06/22 10:53:57;;;;;;;25.57;23.60;;;;;;;;;;5115508;28;20942;-87
2021/06/22 10:56:25;;;;;;;23.47;21.80;;;;;;;;;;5115582;27;20444;-86
2021/06/22 10:59:29;;;;;;;23.97;22.50;;;;;;;;;;5115506;28;20447;-87
2021/06/22 11:02:07;;;;;;;24.53;22.50;;;;;;;;;;5115018;28;20505;-88
2021/06/22 11:04:34;;;;;;;25.60;23.80;;;;;;;;;;5115441;28;20779;-86
2021/06/22 11:07:25;;;;;;;25.93;24.00;;;;;;;;;;5115213;28;20436;-87
2021/06/22 11:10:11;;;;;;;25.87;24.13;;;;;;;;;;5118372;28;20468;-87
2021/06/22 11:12:48;;;;;;;26.33;24.33;;;;;;;;;;5102041;28;20443;-86
2021/06/22 11:15:16;;;;;;;25.87;23.90;;;;;;;;;;5103782;28;20407;-86
2021/06/22 11:17:58;;;;;;;26.00;24.17;;;;;;;;;;5120821;28;20427;-87
2021/06/22 11:20:29;;;;;;;25.80;24.00;;;;;;;;;;5120719;28;20438;-87
2021/06/22 11:23:10;;;;;;;26.10;24.27;;;;;;;;;;5119048;28;20851;-86
2021/06/22 11:25:46;;;;;;;26.53;24.47;;;;;;;;;;5131102;27;20411;-88
2021/06/22 11:28:13;;;;;;;26.87;24.80;;;;;;;;;;5116677;28;20441;-87
2021/06/22 11:30:51;;;;;;;26.43;24.23;;;;;;;;;;5114955;27;20440;-87
2021/06/22 11:33:44;;;;;;;26.07;24.17;;;;;;;;;;5115332;28;20410;-87
2021/06/22 11:36:28;;;;;;;26.50;24.30;;;;;;;;;;5114811;28;20411;-87
2021/06/22 11:39:22;;;;;;;27.00;24.80;;;;;;;;;;5114835;28;20450;-87
2021/06/22 11:42:08;;;;;;;26.63;24.83;;;;;;;;;;5015797;28;20425;-84
2021/06/22 11:44:36;;;;;;;26.30;24.20;;;;;;;;;;5031809;28;20452;-84
2021/06/22 11:47:03;;;;;;;25.63;23.63;;;;;;;;;;5031497;28;20432;-84
2021/06/22 11:49:40;;;;;;;26.40;24.60;;;;;;;;;;5032033;28;20415;-83
2021/06/22 11:52:09;;;;;;;24.90;23.40;;;;;;;;;;5031782;28;20476;-83
2021/06/22 11:54:56;;;;;;;25.53;23.70;;;;;;;;;;5032755;28;20415;-86
2021/06/22 11:57:25;;;;;;;25.53;23.77;;;;;;;;;;5032544;28;20503;-86
2021/06/22 11:59:53;;;;;;;24.97;23.17;;;;;;;;;;5032141;28;20471;-85
2021/06/22 12:02:20;;;;;;;25.00;23.20;;;;;;;;;;5031783;28;20449;-85
2021/06/22 12:04:49;;;;;;;25.57;23.67;;;;;;;;;;5032281;28;20919;-86
2021/06/22 12:07:17;;;;;;;25.27;23.40;;;;;;;;;;5032142;28;20490;-86
2021/06/22 12:09:45;;;;;;;24.60;22.80;;;;;;;;;;5031734;28;20530;-85
2021/06/22 12:12:13;;;;;;;23.23;21.57;;;;;;;;;;5032031;28;20938;-86
2021/06/22 12:14:44;;;;;;;24.37;22.57;;;;;;;;;;5031785;28;20423;-85
2021/06/22 12:17:16;;;;;;;24.30;22.33;;;;;;;;;;5060673;28;20976;-87
2021/06/22 12:19:44;;;;;;;23.90;21.97;;;;;;;;;;5130513;28;20476;-87
2021/06/22 12:22:14;;;;;;;24.23;22.63;;;;;;;;;;5114477;28;20766;-86
2021/06/22 12:24:42;;;;;;;25.40;23.20;;;;;;;;;;5114666;28;20765;-87
2021/06/22 12:27:10;;;;;;;24.93;22.90;;;;;;;;;;5114753;28;20436;-88
2021/06/22 12:29:39;;;;;;;24.90;23.27;;;;;;;;;;5130898;28;20418;-86
2021/06/22 12:32:07;;;;;;;25.60;23.80;;;;;;;;;;5130657;28;20416;-86
2021/06/22 12:34:35;;;;;;;26.53;24.27;;;;;;;;;;5114278;28;20882;-86
2021/06/22 12:37:03;;;;;;;25.40;23.50;;;;;;;;;;5130356;28;20924;-86
2021/06/22 12:39:38;;;;;;;24.43;22.87;;;;;;;;;;5114370;28;20949;-86
2021/06/22 12:42:07;;;;;;;24.40;22.80;;;;;;;;;;5114343;28;20468;-86
2021/06/22 12:44:35;;;;;;;25.30;23.23;;;;;;;;;;5130572;28;20478;-86
2021/06/22 12:47:06;;;;;;;25.37;23.20;;;;;;;;;;5114443;28;20421;-87
2021/06/22 12:49:35;;;;;;;25.63;23.63;;;;;;;;;;5114309;28;20773;-84
2021/06/22 12:52:04;;;;;;;24.97;23.03;;;;;;;;;;5113648;28;20413;-84
2021/06/22 12:54:32;;;;;;;24.30;22.60;;;;;;;;;;5113798;28;20426;-83
2021/06/22 12:57:02;;;;;;;24.87;22.93;;;;;;;;;;5113519;28;20437;-83
2021/06/22 12:59:30;;;;;;;24.23;22.50;;;;;;;;;;5116973;28;20489;-84
2021/06/22 13:02:07;;;;;;;23.47;21.80;;;;;;;;;;5117450;28;20825;-84
2021/06/22 13:04:40;;;;;;;24.87;22.97;;;;;;;;;;5117435;28;20403;-84
2021/06/22 13:07:13;;;;;;;24.10;22.50;;;;;;;;;;5099603;28;20442;-83
2021/06/22 13:09:40;;;;;;;25.07;23.23;;;;;;;;;;5116909;28;20485;-84
2021/06/22 13:12:15;;;;;;;24.60;22.80;;;;;;;;;;5117141;27;20408;-84
2021/06/22 13:14:45;;;;;;;24.40;22.77;;;;;;;;;;5116991;28;20405;-84
2021/06/22 13:17:14;;;;;;;23.30;21.80;;;;;;;;;;5117174;28;20492;-83
2021/06/22 13:19:42;;;;;;;23.70;22.10;;;;;;;;;;5116868;28;20451;-84
2021/06/22 13:22:10;;;;;;;24.67;22.77;;;;;;;;;;5116802;28;20418;-83
2021/06/22 13:24:43;;;;;;;23.70;22.13;;;;;;;;;;5116687;28;20443;-83
2021/06/22 13:27:11;;;;;;;25.33;23.23;;;;;;;;;;5116583;28;20504;-84
2021/06/22 13:29:54;;;;;;;24.67;22.73;;;;;;;;;;5117028;28;20458;-84
2021/06/22 13:32:25;;;;;;;23.83;22.23;;;;;;;;;;5117001;28;20439;-84
2021/06/22 13:34:53;;;;;;;24.13;22.23;;;;;;;;;;5116826;28;20416;-84
2021/06/22 13:37:20;;;;;;;24.43;22.73;;;;;;;;;;5116439;28;20415;-83
2021/06/22 13:39:59;;;;;;;23.90;22.40;;;;;;;;;;5116703;28;20491;-83
2021/06/22 13:42:27;;;;;;;24.30;21.90;;;;;;;;;;5116577;27;20459;-83
2021/06/22 13:44:56;;;;;;;23.43;21.90;;;;;;;;;;5116424;28;20434;-84
2021/06/22 13:47:34;;;;;;;23.60;22.10;;;;;;;;;;5116357;28;20441;-84
2021/06/22 13:50:13;;;;;;;24.00;22.37;;;;;;;;;;5116550;28;20413;-82
2021/06/22 13:52:44;;;;;;;24.00;22.20;;;;;;;;;;5116124;28;20414;-83
2021/06/22 13:55:12;;;;;;;23.23;21.73;;;;;;;;;;5116201;28;20413;-83
2021/06/22 13:57:40;;;;;;;24.00;22.40;;;;;;;;;;5116432;28;20410;-83
2021/06/22 14:00:10;;;;;;;24.47;22.97;;;;;;;;;;5116198;28;20482;-83
2021/06/22 14:02:37;;;;;;;24.33;22.80;;;;;;;;;;5116230;28;20433;-83
2021/06/22 14:05:05;;;;;;;24.80;23.20;;;;;;;;;;5132078;27;20899;-83
2021/06/22 14:07:36;;;;;;;24.83;23.03;;;;;;;;;;5116147;28;20824;-83
2021/06/22 14:10:05;;;;;;;23.20;21.70;;;;;;;;;;5130869;27;20472;-83
2021/06/22 14:12:32;;;;;;;25.00;23.30;;;;;;;;;;5115703;28;20433;-83
2021/06/22 14:14:59;;;;;;;24.10;22.50;;;;;;;;;;5115777;28;20409;-83
2021/06/22 14:17:28;;;;;;;25.30;23.70;;;;;;;;;;5115771;28;20413;-83
2021/06/22 14:19:55;;;;;;;24.33;22.83;;;;;;;;;;5115910;28;20461;-82
2021/06/22 14:22:23;;;;;;;24.00;22.40;;;;;;;;;;5115452;28;20430;-83
2021/06/22 14:24:50;;;;;;;23.60;22.00;;;;;;;;;;5115324;28;20437;-83
2021/06/22 14:27:19;;;;;;;24.30;22.37;;;;;;;;;;5115792;28;20405;-83
2021/06/22 14:29:46;;;;;;;24.43;22.83;;;;;;;;;;5115440;28;20423;-83